createdAt,value
2023-04-26T00:02:51.542Z,62.11
2023-04-26T00:07:54.361Z,61.32
2023-04-26T00:12:56.109Z,60.98
2023-04-26T00:17:57.956Z,60.83
2023-04-26T00:22:59.822Z,60.46
2023-04-26T00:28:02.046Z,60.48
2023-04-26T00:33:04.077Z,60.20
2023-04-26T00:38:06.383Z,60.44
2023-04-26T00:43:08.682Z,60.24
2023-04-26T00:48:10.832Z,60.63
2023-04-26T00:53:14.558Z,60.93
2023-04-26T00:58:16.476Z,61.21
2023-04-26T01:03:18.773Z,61.86
2023-04-26T01:08:21.829Z,62.19
2023-04-26T01:13:26.022Z,62.87
2023-04-26T01:18:27.929Z,63.01
2023-04-26T01:23:31.951Z,63.39
2023-04-26T01:28:34.317Z,63.53
2023-04-26T01:33:39.882Z,63.82
2023-04-26T01:38:41.801Z,63.92
2023-04-26T01:43:43.525Z,64.11
2023-04-26T01:48:45.143Z,64.47
2023-04-26T01:53:47.122Z,64.46
2023-04-26T01:58:48.776Z,65.07
2023-04-26T02:03:51.333Z,64.98
2023-04-26T02:08:54.810Z,65.58
2023-04-26T02:13:56.827Z,66.40
2023-04-26T02:19:00.050Z,67.10
2023-04-26T02:24:01.765Z,67.70
2023-04-26T02:29:06.338Z,68.41
2023-04-26T02:34:08.585Z,68.96
2023-04-26T02:39:12.121Z,69.70
2023-04-26T02:44:14.244Z,69.69
2023-04-26T02:49:16.578Z,69.59
2023-04-26T02:54:18.631Z,70.07
2023-04-26T02:59:20.471Z,70.07
2023-04-26T03:04:22.877Z,70.17
2023-04-26T03:09:24.829Z,70.31
2023-04-26T03:14:27.174Z,70.72
2023-04-26T03:19:29.730Z,71.15
2023-04-26T03:24:31.927Z,71.48
2023-04-26T03:29:33.739Z,71.63
2023-04-26T03:34:35.563Z,71.38
2023-04-26T03:39:37.656Z,71.66
2023-04-26T03:44:39.638Z,71.42
2023-04-26T03:49:42.690Z,71.50
2023-04-26T03:54:44.376Z,72.04
2023-04-26T03:59:46.975Z,72.20
2023-04-26T04:04:49.156Z,72.28
2023-04-26T04:09:51.244Z,71.69
2023-04-26T04:14:55.234Z,70.90
2023-04-26T04:19:58.515Z,69.78
2023-04-26T04:25:00.385Z,69.00
2023-04-26T04:30:04.271Z,68.27
2023-04-26T04:35:07.376Z,67.74
2023-04-26T04:40:11.651Z,67.02
2023-04-26T04:45:14.915Z,66.47
2023-04-26T04:50:17.696Z,64.62
2023-04-26T04:55:19.758Z,62.90
2023-04-26T05:00:22.019Z,61.74
2023-04-26T05:05:37.246Z,59.74
2023-04-26T05:10:39.256Z,55.62
2023-04-26T05:15:41.468Z,51.08
2023-04-26T05:20:43.305Z,46.48
2023-04-26T05:25:45.531Z,42.06
2023-04-26T05:31:05.922Z,37.71
2023-04-26T05:36:23.707Z,35.07
2023-04-26T05:41:25.438Z,33.02
2023-04-26T05:46:27.296Z,31.12
2023-04-26T05:51:29.945Z,30.06
2023-04-26T05:56:32.287Z,28.70
2023-04-26T06:01:34.341Z,28.09
2023-04-26T06:06:36.992Z,27.22
2023-04-26T06:11:39.299Z,26.73
2023-04-26T06:16:43.725Z,26.71
2023-04-26T06:21:45.955Z,26.34
2023-04-26T06:26:47.685Z,25.36
2023-04-26T06:31:49.830Z,25.48
2023-04-26T06:36:54.671Z,26.23
2023-04-26T06:41:57.691Z,25.96
2023-04-26T06:47:02.748Z,26.20
2023-04-26T06:52:08.280Z,28.28
2023-04-26T06:57:11.455Z,30.07
2023-04-26T07:02:15.671Z,32.33
2023-04-26T07:07:17.884Z,34.64
2023-04-26T07:12:19.652Z,37.03
2023-04-26T07:17:22.357Z,38.80
2023-04-26T07:22:24.515Z,40.54
2023-04-26T07:27:26.395Z,41.57
2023-04-26T07:32:28.174Z,41.34
2023-04-26T07:37:29.866Z,39.87
2023-04-26T07:42:31.525Z,39.81
2023-04-26T07:47:33.364Z,39.75
2023-04-26T07:52:35.458Z,39.51
2023-04-26T07:57:37.781Z,38.78
2023-04-26T08:02:45.091Z,36.43
2023-04-26T08:07:47.198Z,34.65
2023-04-26T08:12:50.424Z,32.16
2023-04-26T08:17:53.434Z,30.53
2023-04-26T08:22:57.137Z,29.45
2023-04-26T08:27:58.835Z,27.92
2023-04-26T08:33:01.568Z,29.96
2023-04-26T08:38:03.590Z,31.54
2023-04-26T08:43:05.684Z,32.76
2023-04-26T08:48:14.826Z,35.04
2023-04-26T08:53:21.610Z,36.49
2023-04-26T08:58:24.188Z,36.34
2023-04-26T09:03:26.619Z,37.55
2023-04-26T09:08:29.522Z,37.21
2023-04-26T09:13:31.488Z,39.49
2023-04-26T09:18:34.162Z,41.39
2023-04-26T09:23:36.177Z,42.21
2023-04-26T09:28:38.042Z,41.15
2023-04-26T09:33:58.542Z,38.52
2023-04-26T09:39:00.545Z,37.07
2023-04-26T09:44:02.454Z,37.77
2023-04-26T09:49:04.247Z,37.19
2023-04-26T09:54:06.488Z,36.89
2023-04-26T09:59:11.488Z,36.97
2023-04-26T10:04:13.527Z,35.14
2023-04-26T10:09:16.048Z,35.70
2023-04-26T10:14:18.427Z,35.87
2023-04-26T10:19:21.942Z,35.57
2023-04-26T10:24:24.428Z,36.01
2023-04-26T10:29:54.990Z,35.97
2023-04-26T10:35:13.518Z,36.59
2023-04-26T10:40:24.503Z,34.65
2023-04-26T10:45:28.926Z,35.73
2023-04-26T10:50:30.694Z,36.22
2023-04-26T10:55:40.594Z,37.71
2023-04-26T11:01:18.437Z,37.50
2023-04-26T11:06:23.396Z,37.68
2023-04-26T11:11:27.318Z,35.83
2023-04-26T11:16:29.383Z,35.12
2023-04-26T11:21:32.679Z,36.48
2023-04-26T11:26:35.240Z,36.75
2023-04-26T11:31:37.266Z,37.82
2023-04-26T11:36:39.079Z,36.23
2023-04-26T11:41:40.826Z,36.38
2023-04-26T11:46:45.273Z,35.63
2023-04-26T11:51:49.628Z,35.31
2023-04-26T11:56:51.319Z,34.93
2023-04-26T12:01:53.572Z,34.64
2023-04-26T12:06:56.490Z,35.17
2023-04-26T12:12:02.772Z,36.33
2023-04-26T12:17:07.471Z,35.23
2023-04-26T12:22:09.444Z,36.03
2023-04-26T12:27:20.893Z,36.00
2023-04-26T12:32:22.972Z,37.08
2023-04-26T12:37:24.772Z,37.81
2023-04-26T12:42:26.749Z,36.95
2023-04-26T12:47:28.496Z,35.44
2023-04-26T12:52:30.534Z,34.83
2023-04-26T12:57:32.353Z,33.58
2023-04-26T13:02:34.540Z,35.78
2023-04-26T13:07:37.583Z,36.44
2023-04-26T13:12:39.704Z,34.63
2023-04-26T13:17:43.003Z,32.81
2023-04-26T13:22:44.815Z,33.99
2023-04-26T13:27:46.961Z,34.71
2023-04-26T13:32:49.518Z,36.75
2023-04-26T13:37:52.718Z,37.80
2023-04-26T13:42:54.408Z,36.51
2023-04-26T13:47:56.168Z,35.81
2023-04-26T13:52:58.051Z,36.44
2023-04-26T13:57:59.755Z,35.69
2023-04-26T14:03:01.628Z,35.40
2023-04-26T14:08:03.633Z,37.46
2023-04-26T14:13:05.417Z,38.06
2023-04-26T14:18:08.751Z,37.07
2023-04-26T14:23:10.634Z,36.80
2023-04-26T14:28:12.726Z,35.97
2023-04-26T14:33:14.624Z,36.81
2023-04-26T14:38:16.759Z,37.86
2023-04-26T14:43:18.797Z,39.29
2023-04-26T14:48:20.756Z,39.61
2023-04-26T14:53:22.448Z,40.39
2023-04-26T14:58:25.738Z,39.02
2023-04-26T15:03:27.860Z,38.08
2023-04-26T15:08:30.058Z,37.88
2023-04-26T15:13:31.897Z,36.90
2023-04-26T15:18:33.663Z,36.84
2023-04-26T15:23:35.489Z,38.00
2023-04-26T15:28:37.216Z,39.43
2023-04-26T15:33:39.198Z,40.50
2023-04-26T15:38:44.956Z,40.42
2023-04-26T15:43:46.578Z,40.59
2023-04-26T15:48:48.873Z,40.48
2023-04-26T15:53:51.523Z,39.73
2023-04-26T15:58:53.234Z,38.50
2023-04-26T16:03:55.116Z,38.86
2023-04-26T16:08:56.998Z,38.34
2023-04-26T16:13:58.777Z,38.56
2023-04-26T16:19:00.820Z,37.64
2023-04-26T16:24:02.532Z,37.48
2023-04-26T16:29:04.535Z,39.07
2023-04-26T16:34:06.907Z,39.03
2023-04-26T16:39:08.789Z,38.89
2023-04-26T16:44:11.193Z,39.04
2023-04-26T16:49:12.981Z,39.43
2023-04-26T16:54:14.686Z,39.33
2023-04-26T16:59:16.394Z,39.53
2023-04-26T17:04:18.498Z,39.87
2023-04-26T17:09:20.744Z,39.58
2023-04-26T17:14:22.416Z,39.99
2023-04-26T17:19:24.504Z,41.05
2023-04-26T17:24:26.257Z,41.98
2023-04-26T17:29:28.175Z,42.51
2023-04-26T17:34:29.981Z,43.30
2023-04-26T17:39:31.726Z,44.31
2023-04-26T17:44:33.433Z,44.64
2023-04-26T17:49:35.325Z,45.01
2023-04-26T17:54:37.082Z,45.37
2023-04-26T17:59:38.746Z,46.19
2023-04-26T18:04:41.361Z,46.74
2023-04-26T18:09:43.323Z,46.64
2023-04-26T18:14:45.293Z,47.40
2023-04-26T18:19:47.069Z,48.05
2023-04-26T18:24:48.795Z,48.30
2023-04-26T18:29:50.683Z,49.01
2023-04-26T18:34:52.523Z,49.76
2023-04-26T18:39:54.699Z,50.30
2023-04-26T18:44:56.637Z,50.64
2023-04-26T18:49:59.160Z,51.29
2023-04-26T18:55:01.112Z,51.52
2023-04-26T19:00:05.047Z,52.37
2023-04-26T19:05:08.335Z,53.18
2023-04-26T19:10:10.602Z,53.87
2023-04-26T19:15:12.393Z,54.41
2023-04-26T19:20:15.159Z,54.50
2023-04-26T19:25:20.579Z,54.95
2023-04-26T19:30:22.278Z,55.88
2023-04-26T19:35:24.249Z,56.64
2023-04-26T19:40:25.986Z,56.87
2023-04-26T19:45:29.035Z,57.50
2023-04-26T19:50:30.747Z,58.14
2023-04-26T19:55:32.873Z,58.84
2023-04-26T20:00:39.017Z,59.17
2023-04-26T20:05:41.178Z,59.18
2023-04-26T20:10:42.994Z,59.46
2023-04-26T20:15:44.661Z,60.17
2023-04-26T20:20:47.823Z,60.70
2023-04-26T20:25:51.276Z,61.20
2023-04-26T20:30:53.183Z,61.81
2023-04-26T20:35:54.942Z,61.90
2023-04-26T20:40:57.334Z,62.15
2023-04-26T20:45:59.057Z,62.81
2023-04-26T20:51:02.056Z,62.82
2023-04-26T20:56:04.127Z,63.12
2023-04-26T21:01:07.343Z,63.27
2023-04-26T21:06:09.857Z,63.57
2023-04-26T21:11:31.490Z,63.53
2023-04-26T21:16:33.171Z,63.88
2023-04-26T21:21:35.171Z,64.31
2023-04-26T21:26:36.948Z,64.08
2023-04-26T21:31:38.668Z,64.59
2023-04-26T21:36:41.021Z,65.18
2023-04-26T21:42:03.652Z,65.35
2023-04-26T21:47:25.478Z,65.67
2023-04-26T21:52:28.796Z,65.92
2023-04-26T21:57:30.515Z,66.54
2023-04-26T22:02:32.377Z,66.73
2023-04-26T22:07:34.851Z,66.54
2023-04-26T22:12:36.691Z,66.76
2023-04-26T22:17:38.430Z,67.15
2023-04-26T22:22:40.827Z,66.95
2023-04-26T22:27:42.481Z,67.03
2023-04-26T22:32:44.174Z,67.00
2023-04-26T22:37:47.150Z,67.22
2023-04-26T22:42:48.968Z,67.32
2023-04-26T22:47:51.033Z,67.35
2023-04-26T22:52:53.003Z,67.21
2023-04-26T22:57:54.846Z,66.71
2023-04-26T23:02:56.760Z,66.16
2023-04-26T23:07:59.899Z,65.88
2023-04-26T23:13:09.804Z,66.19
2023-04-26T23:18:11.924Z,66.38
2023-04-26T23:23:13.653Z,66.14
2023-04-26T23:28:15.465Z,65.88
2023-04-26T23:33:19.406Z,65.72
2023-04-26T23:38:23.023Z,65.84
2023-04-26T23:43:25.398Z,66.06
2023-04-26T23:48:28.711Z,65.81
2023-04-26T23:53:30.843Z,65.66
2023-04-26T23:58:32.524Z,65.56
